Time;durP1;ratioP1;P1;durP2;ratioP2;P2;SDS_P1;SDS_P2;PMS_P1;PMS_P2;Temp;Humidity;BMP_temperature;BMP_pressure;BME280_temperature;BME280_humidity;BME280_pressure;Samples;Min_cycle;Max_cycle;Signal;HPM_P1;HPM_P2
2022/12/20 00:02:05;;;;;;;;;;;4.70;99.90;;;3.88;100.00;97779.56;5009140;28;19961;-40
2022/12/20 00:04:31;;;;;;;;;;;4.70;99.90;;;3.82;100.00;97783.94;5009372;28;20010;-40
2022/12/20 00:06:57;;;;;;;;;;;4.70;99.90;;;3.81;100.00;97770.91;5004021;28;20385;-40
2022/12/20 00:09:24;;;;;;;;;;;4.70;99.90;;;3.77;100.00;97779.63;5003047;28;19933;-40
2022/12/20 00:11:50;;;;;;;;;;;4.70;99.90;;;3.77;100.00;97782.22;4999519;28;20343;-40
2022/12/20 00:14:16;;;;;;;;;;;4.60;99.90;;;3.75;100.00;97763.06;5003273;28;19921;-40
2022/12/20 00:16:42;;;;;;;;;;;4.60;99.90;;;3.75;100.00;97766.56;5005915;28;20039;-40
2022/12/20 00:19:09;;;;;;;;;;;4.60;99.90;;;3.71;100.00;97766.59;5012631;28;19991;-40
2022/12/20 00:21:35;;;;;;;;;;;4.60;99.90;;;3.68;100.00;97759.66;5004476;28;20574;-40
2022/12/20 00:24:01;;;;;;;;;;;4.60;99.90;;;3.69;100.00;97745.72;4997143;28;19928;-40
2022/12/20 00:26:30;;;;;;;;;;;4.60;99.90;;;3.72;100.00;97744.84;5001980;28;19933;-40
2022/12/20 00:28:56;;;;;;;;;;;4.60;99.90;;;3.66;100.00;97734.44;5001152;28;19925;-40
2022/12/20 00:31:23;;;;;;;;;;;4.50;99.90;;;3.65;100.00;97743.16;4998856;28;19935;-40
2022/12/20 00:33:51;;;;;;;;;;;4.50;99.90;;;3.61;100.00;97731.84;4994629;28;20195;-40
2022/12/20 00:36:17;;;;;;;;;;;4.50;99.90;;;3.56;100.00;97726.66;5003613;28;19956;-40
2022/12/20 00:38:45;;;;;;;;;;;4.50;99.90;;;3.57;100.00;97738.81;4998808;28;19921;-40
2022/12/20 00:41:13;;;;;;;;;;;4.40;99.90;;;3.57;100.00;97735.31;5002703;28;21604;-40
2022/12/20 00:43:39;;;;;;;;;;;4.50;99.90;;;3.55;100.00;97726.66;5002996;28;19920;-40
2022/12/20 00:46:07;;;;;;;;;;;4.50;99.90;;;3.44;100.00;97721.47;5002717;28;20018;-40
2022/12/20 00:48:32;;;;;;;;;;;4.40;99.90;;;3.57;100.00;97745.75;5002591;28;22098;-41
2022/12/20 00:51:06;;;;;;;;;;;4.40;99.90;;;3.54;100.00;97730.16;5007051;28;19976;-40
2022/12/20 00:53:32;;;;;;;;;;;4.40;99.90;;;3.60;100.00;97745.75;5000639;28;20040;-40
2022/12/20 00:55:58;;;;;;;;;;;4.50;99.90;;;3.60;100.00;97733.56;4997268;28;19925;-40
2022/12/20 00:58:24;;;;;;;;;;;4.50;99.90;;;3.66;100.00;97722.28;4999739;28;19982;-40
2022/12/20 01:00:50;;;;;;;;;;;4.50;99.90;;;3.69;100.00;97729.22;5003090;28;19952;-41
2022/12/20 01:03:16;;;;;;;;;;;4.50;99.90;;;3.71;100.00;97733.53;5007229;28;19921;-41
2022/12/20 01:05:58;;;;;;;;;;;4.60;99.90;;;3.73;100.00;97739.63;5003280;28;20412;-41
2022/12/20 01:08:25;;;;;;;;;;;4.60;99.90;;;3.59;100.00;97713.59;5002031;28;19933;-40
2022/12/20 01:11:08;;;;;;;;;;;4.60;99.90;;;3.75;100.00;97744.81;5000562;28;19925;-41
2022/12/20 01:13:35;;;;;;;;;;;4.60;99.90;;;3.78;100.00;97750.88;5001256;28;19967;-41
2022/12/20 01:16:16;;;;;;;;;;;4.60;99.90;;;3.80;100.00;97757.00;5001958;28;19920;-41
2022/12/20 01:18:42;;;;;;;;;;;4.60;99.90;;;3.72;100.00;97742.25;5003126;28;20326;-41
2022/12/20 01:21:11;;;;;;;;;;;4.60;99.90;;;3.59;100.00;97731.84;5010769;28;19921;-41
2022/12/20 01:23:37;;;;;;;;;;;4.70;99.90;;;3.71;100.00;97743.09;5012012;28;20066;-41
2022/12/20 01:26:04;;;;;;;;;;;4.70;99.90;;;3.81;100.00;97757.84;5009409;28;19928;-41
2022/12/20 01:28:31;;;;;;;;;;;4.70;99.90;;;3.81;100.00;97744.81;5012812;28;19925;-41
2022/12/20 01:30:57;;;;;;;;;;;4.70;99.90;;;3.88;100.00;97759.56;5008534;28;22222;-41
2022/12/20 01:33:22;;;;;;;;;;;4.70;99.90;;;3.88;100.00;97748.25;5007189;28;20332;-41
2022/12/20 01:35:58;;;;;;;;;;;4.70;99.90;;;3.87;100.00;97749.13;5008031;28;19925;-41
2022/12/20 01:38:24;;;;;;;;;;;4.70;99.90;;;3.82;100.00;97743.91;5011173;28;20015;-41
2022/12/20 01:40:50;;;;;;;;;;;4.70;99.90;;;3.78;100.00;97737.84;5011057;28;20016;-41
2022/12/20 01:43:16;;;;;;;;;;;4.60;99.90;;;3.69;100.00;97739.63;5015254;28;19947;-41
2022/12/20 01:45:42;;;;;;;;;;;4.60;99.90;;;3.65;100.00;97738.78;5006350;28;20008;-41
2022/12/20 01:48:08;;;;;;;;;;;4.50;99.90;;;3.59;100.00;97733.59;5013389;28;21184;-41
2022/12/20 01:50:34;;;;;;;;;;;4.50;99.90;;;3.53;100.00;97738.81;4988286;28;19924;-40
2022/12/20 01:53:03;;;;;;;;;;;4.40;99.90;;;3.56;100.00;97729.25;5030261;22;19932;-37
2022/12/20 01:55:29;;;;;;;;;;;4.50;99.90;;;3.60;100.00;97724.88;4999950;28;21782;-37
2022/12/20 01:58:04;;;;;;;;;;;4.40;99.90;;;3.65;100.00;97737.94;5019179;28;19963;-37
2022/12/20 02:00:30;;;;;;;;;;;4.50;99.90;;;3.65;100.00;97741.41;5000130;28;20554;-37
2022/12/20 02:02:58;;;;;;;;;;;4.50;99.90;;;3.61;100.00;97711.00;5020113;28;19924;-38
2022/12/20 02:05:24;;;;;;;;;;;4.40;99.90;;;3.60;100.00;97707.50;5012679;28;20384;-38
2022/12/20 02:07:52;;;;;;;;;;;4.50;99.90;;;3.60;100.00;97715.31;5014931;28;19971;-37
2022/12/20 02:10:20;;;;;;;;;;;4.50;99.90;;;3.58;100.00;97705.78;5002375;28;19927;-37
2022/12/20 02:12:47;;;;;;;;;;;4.40;99.90;;;3.58;100.00;97711.00;5016516;28;19924;-37
2022/12/20 02:15:41;;;;;;;;;;;4.40;99.90;;;3.50;100.00;97681.47;5000989;28;19925;-37
2022/12/20 02:18:07;;;;;;;;;;;4.50;99.90;;;3.61;100.00;97703.16;5018197;28;19951;-38
2022/12/20 02:20:54;;;;;;;;;;;4.50;99.90;;;3.63;100.00;97702.28;5027067;28;19960;-37
2022/12/20 02:23:35;;;;;;;;;;;4.50;99.90;;;3.65;100.00;97699.66;5029492;28;19979;-37
2022/12/20 02:26:38;;;;;;;;;;;4.50;99.90;;;3.61;100.00;97701.41;5007613;28;19976;-37
2022/12/20 02:29:24;;;;;;;;;;;4.50;99.90;;;3.52;100.00;97691.03;5012834;28;20432;-37
2022/12/20 02:32:16;;;;;;;;;;;4.40;99.90;;;3.51;100.00;97678.00;4998193;28;23665;-37
2022/12/20 02:34:42;;;;;;;;;;;4.40;99.90;;;3.47;100.00;97682.34;5004164;28;19923;-37
2022/12/20 02:40:37;;;;;;;;;;;4.30;99.90;;;3.32;100.00;97698.03;5016669;28;20336;-37
2022/12/20 02:45:14;;;;;;;;;;;4.20;99.90;;;3.29;100.00;97688.50;5005528;28;21373;-37
2022/12/20 02:45:50;;;;;;;;;;;4.20;99.90;;;3.25;100.00;97681.56;5014873;28;19931;-37
2022/12/20 02:48:16;;;;;;;;;;;4.10;99.90;;;3.23;100.00;97689.41;5007708;28;20702;-37
2022/12/20 02:50:49;;;;;;;;;;;4.10;99.90;;;3.25;100.00;97687.66;5024920;28;19982;-37
2022/12/20 02:53:15;;;;;;;;;;;4.10;99.90;;;3.24;100.00;97688.50;5004273;28;19987;-37
2022/12/20 02:55:49;;;;;;;;;;;4.10;99.90;;;3.30;100.00;97678.94;5025589;28;19925;-37
2022/12/20 02:58:26;;;;;;;;;;;4.10;99.90;;;3.22;100.00;97661.59;5027798;28;20528;-37
2022/12/20 03:00:52;;;;;;;;;;;4.10;99.90;;;3.12;100.00;97645.97;5018397;28;19925;-37
2022/12/20 03:03:21;;;;;;;;;;;4.10;99.90;;;3.27;100.00;97665.91;5014691;28;19917;-37
2022/12/20 03:05:48;;;;;;;;;;;4.10;99.90;;;3.31;100.00;97659.81;5008004;28;19987;-37
2022/12/20 03:08:13;;;;;;;;;;;4.10;99.90;;;3.31;100.00;97654.63;5019765;28;19929;-37
2022/12/20 03:10:39;;;;;;;;;;;4.20;99.90;;;3.32;100.00;97654.63;5001455;28;20453;-37
2022/12/20 03:13:05;;;;;;;;;;;4.20;99.90;;;3.38;100.00;97653.72;5024484;28;21451;-37
2022/12/20 03:15:30;;;;;;;;;;;4.20;99.90;;;3.40;100.00;97660.66;5024594;28;20353;-37
2022/12/20 03:17:56;;;;;;;;;;;4.30;99.90;;;3.40;100.00;97663.25;5031603;28;19920;-37
2022/12/20 03:20:21;;;;;;;;;;;4.30;99.90;;;3.46;100.00;97653.66;5026662;28;20385;-37
2022/12/20 03:22:47;;;;;;;;;;;4.30;99.90;;;3.49;100.00;97651.91;5022312;28;20219;-37
2022/12/20 03:25:13;;;;;;;;;;;4.30;99.90;;;3.54;100.00;97652.78;5030255;28;20350;-36
2022/12/20 03:27:38;;;;;;;;;;;4.40;99.90;;;3.54;100.00;97641.47;5026003;28;19948;-37
2022/12/20 03:30:05;;;;;;;;;;;4.40;99.90;;;3.57;100.00;97637.13;5027298;28;20011;-37
2022/12/20 03:32:31;;;;;;;;;;;4.40;99.90;;;3.59;100.00;97624.06;5028329;28;19921;-37
2022/12/20 03:34:56;;;;;;;;;;;4.50;99.90;;;3.58;100.00;97612.75;5025761;28;20554;-37
2022/12/20 03:37:22;;;;;;;;;;;4.50;99.90;;;3.67;100.00;97627.47;5024555;28;20640;-37
2022/12/20 03:39:47;;;;;;;;;;;4.50;99.90;;;3.69;100.00;97630.09;5028020;28;19947;-37
2022/12/20 03:42:13;;;;;;;;;;;4.50;99.90;;;3.65;100.00;97628.38;5024034;28;20087;-37
2022/12/20 03:44:39;;;;;;;;;;;4.60;99.90;;;3.71;100.00;97634.41;5021116;28;20638;-37
2022/12/20 03:47:04;;;;;;;;;;;4.60;99.90;;;3.72;100.00;97654.41;5028449;28;19928;-37
2022/12/20 03:49:30;;;;;;;;;;;4.60;99.90;;;3.77;100.00;97654.41;5029527;28;19971;-36
2022/12/20 03:51:56;;;;;;;;;;;4.60;99.90;;;3.78;100.00;97645.69;5034292;28;19916;-37
2022/12/20 03:54:21;;;;;;;;;;;4.60;99.90;;;3.82;100.00;97639.56;5031669;28;20384;-37
2022/12/20 03:56:47;;;;;;;;;;;4.70;99.90;;;3.88;100.00;97633.47;5027518;28;19998;-37
2022/12/20 03:59:13;;;;;;;;;;;4.70;99.90;;;3.94;100.00;97636.88;5032021;28;19967;-37
2022/12/20 04:01:38;;;;;;;;;;;4.80;99.90;;;4.03;100.00;97628.13;5023988;28;19921;-37
2022/12/20 04:04:04;;;;;;;;;;;4.90;99.90;;;4.11;100.00;97628.06;5025176;28;19925;-37
2022/12/20 04:06:30;;;;;;;;;;;5.00;99.90;;;4.17;100.00;97626.25;5014886;28;20011;-37
2022/12/20 04:08:56;;;;;;;;;;;5.00;99.90;;;4.26;100.00;97630.56;5022278;28;20020;-37
2022/12/20 04:11:21;;;;;;;;;;;5.10;99.90;;;4.35;100.00;97619.16;5022991;28;19921;-37
2022/12/20 04:13:50;;;;;;;;;;;5.20;99.90;;;4.42;100.00;97620.00;5026769;28;19933;-37
2022/12/20 04:16:19;;;;;;;;;;;5.20;99.90;;;4.47;100.00;97613.84;5027601;28;19928;-37
2022/12/20 04:18:44;;;;;;;;;;;5.30;99.90;;;4.50;100.00;97605.09;5019840;28;19924;-38
2022/12/20 04:21:11;;;;;;;;;;;5.30;99.90;;;4.52;100.00;97614.66;5022991;28;20239;-37
2022/12/20 04:23:37;;;;;;;;;;;5.40;99.90;;;4.57;100.00;97615.47;5021570;28;19986;-37
2022/12/20 04:26:05;;;;;;;;;;;5.30;99.90;;;4.58;100.00;97619.81;5026105;28;19989;-37
2022/12/20 04:28:31;;;;;;;;;;;5.40;99.90;;;4.54;100.00;97607.69;5024834;28;20024;-38
2022/12/20 04:30:57;;;;;;;;;;;5.40;99.90;;;4.60;100.00;97617.19;5028465;28;19917;-37
2022/12/20 04:33:23;;;;;;;;;;;5.40;99.90;;;4.61;100.00;97624.13;5027048;28;19944;-37
2022/12/20 04:35:49;;;;;;;;;;;5.40;99.90;;;4.63;100.00;97635.47;5028754;28;19928;-37
2022/12/20 04:38:15;;;;;;;;;;;5.40;99.90;;;4.62;100.00;97619.81;5027971;28;19943;-37
2022/12/20 04:40:41;;;;;;;;;;;5.40;99.90;;;4.57;100.00;97597.19;5029007;28;19944;-37
2022/12/20 04:43:06;;;;;;;;;;;5.40;99.90;;;4.63;100.00;97593.66;5025620;28;19917;-37
2022/12/20 04:45:32;;;;;;;;;;;5.40;99.90;;;4.62;100.00;97597.16;5026750;28;19971;-37
2022/12/20 04:47:58;;;;;;;;;;;5.50;99.90;;;4.58;100.00;97593.69;5026723;28;20015;-37
2022/12/20 04:50:24;;;;;;;;;;;5.40;99.90;;;4.63;100.00;97598.88;5022646;28;19921;-38
2022/12/20 04:55:38;;;;;;;;;;;5.40;99.90;;;4.60;100.00;97596.31;5018323;28;20448;-37
2022/12/20 04:58:04;;;;;;;;;;;5.40;99.90;;;4.57;100.00;97591.09;5028718;28;19935;-37
2022/12/20 05:00:30;;;;;;;;;;;5.40;99.90;;;4.55;100.00;97590.25;5027908;28;19917;-37
2022/12/20 05:02:55;;;;;;;;;;;5.40;99.90;;;4.52;100.00;97596.38;5025966;28;19967;-37
2022/12/20 05:05:21;;;;;;;;;;;5.30;99.90;;;4.44;100.00;97599.94;5030387;28;20604;-37
2022/12/20 05:07:47;;;;;;;;;;;5.30;99.90;;;4.44;100.00;97589.50;5030230;28;20004;-37
2022/12/20 05:10:12;;;;;;;;;;;5.30;99.90;;;4.46;100.00;97572.91;5025733;28;20067;-37
2022/12/20 05:12:38;;;;;;;;;;;5.30;99.90;;;4.53;100.00;97585.03;5025134;28;19917;-37
2022/12/20 05:15:04;;;;;;;;;;;5.30;99.90;;;4.56;100.00;97579.78;5024747;28;19956;-38
2022/12/20 05:17:29;;;;;;;;;;;5.40;99.90;;;4.54;100.00;97559.78;5031074;28;20295;-37
2022/12/20 05:19:55;;;;;;;;;;;5.40;99.90;;;4.62;100.00;97570.16;5026255;28;19925;-37
2022/12/20 05:27:50;;;;;;;;;;;5.50;99.90;;;4.67;100.00;97569.22;5021067;28;19932;-37
2022/12/20 05:30:16;;;;;;;;;;;5.50;99.90;;;4.68;100.00;97570.94;5027030;28;19925;-37
2022/12/20 05:32:41;;;;;;;;;;;5.50;99.90;;;4.71;100.00;97570.06;5031209;28;20292;-37
2022/12/20 05:35:07;;;;;;;;;;;5.50;99.90;;;4.73;100.00;97566.53;5038262;28;20003;-37
2022/12/20 05:37:33;;;;;;;;;;;5.60;99.90;;;4.74;100.00;97568.28;5027702;28;19931;-37
2022/12/20 05:39:58;;;;;;;;;;;5.50;99.90;;;4.78;100.00;97564.75;5032923;28;19921;-37
2022/12/20 05:42:24;;;;;;;;;;;5.60;99.90;;;4.82;100.00;97564.72;5032700;28;19932;-37
2022/12/20 05:44:50;;;;;;;;;;;5.60;99.90;;;4.82;100.00;97562.09;5029819;28;19972;-37
2022/12/20 05:47:16;;;;;;;;;;;5.60;99.90;;;4.73;100.00;97536.94;5026789;28;19917;-37
2022/12/20 05:49:41;;;;;;;;;;;5.60;99.90;;;4.81;100.00;97547.28;5032512;28;19932;-37
2022/12/20 05:52:07;;;;;;;;;;;5.60;99.90;;;4.78;100.00;97543.84;5029688;28;20399;-37
2022/12/20 05:54:33;;;;;;;;;;;5.60;99.90;;;4.78;100.00;97535.16;5027279;28;20027;-37
2022/12/20 05:56:58;;;;;;;;;;;5.60;99.90;;;4.83;100.00;97540.31;5016113;28;20007;-37
2022/12/20 05:59:24;;;;;;;;;;;5.60;99.90;;;4.76;100.00;97535.16;5018836;28;20132;-37
2022/12/20 06:01:49;;;;;;;;;;;5.60;99.90;;;4.82;100.00;97533.38;5026435;28;19960;-37
2022/12/20 06:04:15;;;;;;;;;;;5.60;99.90;;;4.76;100.00;97529.94;5020647;28;19920;-37
2022/12/20 06:06:41;;;;;;;;;;;5.60;99.90;;;4.72;100.00;97533.47;5019017;28;20019;-37
2022/12/20 06:09:06;;;;;;;;;;;5.60;99.90;;;4.65;100.00;97531.81;5023165;28;19928;-37
2022/12/20 06:11:32;;;;;;;;;;;5.50;99.90;;;4.67;100.00;97540.50;5023571;28;20019;-37
2022/12/20 06:13:58;;;;;;;;;;;5.50;99.90;;;4.68;100.00;97551.81;5029151;28;19979;-37
2022/12/20 06:16:24;;;;;;;;;;;5.50;99.90;;;4.67;100.00;97552.69;5018390;28;20022;-37
2022/12/20 06:18:50;;;;;;;;;;;5.50;99.90;;;4.51;100.00;97525.88;5016869;28;19952;-37
2022/12/20 06:21:15;;;;;;;;;;;5.40;99.90;;;4.57;100.00;97547.53;5023357;28;20090;-37
2022/12/20 06:23:41;;;;;;;;;;;5.40;99.90;;;4.55;100.00;97536.25;5024775;28;20372;-37
2022/12/20 06:26:08;;;;;;;;;;;5.40;99.90;;;4.59;100.00;97542.31;5021969;28;20014;-37
2022/12/20 06:28:34;;;;;;;;;;;5.40;99.90;;;4.62;100.00;97544.03;5019575;28;19921;-37
2022/12/20 06:31:00;;;;;;;;;;;5.40;99.90;;;4.65;100.00;97547.50;5024023;28;20149;-37
2022/12/20 06:33:26;;;;;;;;;;;5.40;99.90;;;4.65;100.00;97552.72;5028102;28;20298;-37
2022/12/20 06:35:51;;;;;;;;;;;5.50;99.90;;;4.63;100.00;97551.88;5018497;28;20845;-37
2022/12/20 06:38:17;;;;;;;;;;;5.50;99.90;;;4.69;100.00;97554.41;5026647;28;21175;-37
2022/12/20 06:40:43;;;;;;;;;;;5.50;99.90;;;4.71;100.00;97554.38;5016217;28;20447;-37
2022/12/20 06:43:08;;;;;;;;;;;5.50;99.90;;;4.67;100.00;97550.94;5021223;28;19931;-37
2022/12/20 06:45:34;;;;;;;;;;;5.50;99.90;;;4.73;100.00;97563.06;5021668;28;20018;-37
2022/12/20 06:48:00;;;;;;;;;;;5.60;99.90;;;4.74;100.00;97568.28;5028981;28;20242;-36
2022/12/20 06:50:26;;;;;;;;;;;5.50;99.90;;;4.66;100.00;97554.44;5026079;28;19941;-37
2022/12/20 06:52:52;;;;;;;;;;;5.50;99.90;;;4.72;100.00;97559.59;5018319;28;20433;-37
2022/12/20 06:55:18;;;;;;;;;;;5.50;99.90;;;4.73;100.00;97563.06;5019396;28;19920;-37
2022/12/20 06:57:43;;;;;;;;;;;5.50;99.90;;;4.70;100.00;97560.47;5019004;28;20009;-37
2022/12/20 07:00:11;;;;;;;;;;;5.50;99.90;;;4.64;100.00;97548.34;5010991;28;19925;-36
2022/12/20 07:02:37;;;;;;;;;;;5.50;99.90;;;4.64;100.00;97542.28;5020550;28;20408;-37
2022/12/20 07:05:03;;;;;;;;;;;5.50;99.90;;;4.66;100.00;97551.81;5017194;28;19932;-37
2022/12/20 07:07:29;;;;;;;;;;;5.50;99.90;;;4.67;100.00;97547.47;5028687;28;19925;-37
2022/12/20 07:09:55;;;;;;;;;;;5.50;99.90;;;4.69;100.00;97554.41;5020007;28;20146;-37
2022/12/20 07:12:21;;;;;;;;;;;5.50;99.90;;;4.63;100.00;97544.03;5026192;28;19928;-37
2022/12/20 07:14:46;;;;;;;;;;;5.40;99.90;;;4.65;100.00;97547.50;5024335;28;19966;-37
2022/12/20 07:17:12;;;;;;;;;;;5.50;99.90;;;4.67;100.00;97555.31;5014709;28;20003;-37
2022/12/20 07:19:37;;;;;;;;;;;5.40;99.90;;;4.58;100.00;97546.69;5031186;28;20354;-37
2022/12/20 07:22:04;;;;;;;;;;;5.40;99.90;;;4.59;100.00;97550.16;5031094;28;20473;-37
2022/12/20 07:24:30;;;;;;;;;;;5.40;99.90;;;4.56;100.00;97547.59;5026123;28;19928;-37
2022/12/20 07:26:56;;;;;;;;;;;5.40;99.90;;;4.57;100.00;97547.53;5023254;28;19942;-37
2022/12/20 07:29:21;;;;;;;;;;;5.40;99.90;;;4.58;100.00;97541.47;5029076;28;20586;-37
2022/12/20 07:31:47;;;;;;;;;;;5.40;99.90;;;4.60;100.00;97541.44;5038047;28;19949;-37
2022/12/20 07:34:12;;;;;;;;;;;5.40;99.90;;;4.68;100.00;97555.28;5031458;28;19923;-37
2022/12/20 07:36:38;;;;;;;;;;;5.50;99.90;;;4.74;100.00;97552.59;5038448;28;19928;-37
2022/12/20 07:39:04;;;;;;;;;;;5.50;99.90;;;4.81;100.00;97555.13;5038335;28;20300;-37
2022/12/20 07:41:30;;;;;;;;;;;5.60;99.90;;;4.84;100.00;97548.13;5037547;28;20296;-37
2022/12/20 07:43:58;;;;;;;;;;;5.60;99.90;;;4.95;100.00;97550.59;5029755;28;19923;-37
2022/12/20 07:46:23;;;;;;;;;;;5.80;99.90;;;5.03;100.00;97551.41;5030215;28;19921;-37
2022/12/20 07:48:49;;;;;;;;;;;5.80;99.90;;;4.92;100.00;97522.78;5041662;28;19921;-37
2022/12/20 07:51:18;;;;;;;;;;;5.90;99.90;;;5.13;100.00;97544.28;5031340;28;20170;-35
2022/12/20 07:53:50;;;;;;;;;;;5.90;99.90;;;5.20;100.00;97539.84;5057264;22;19939;-40
2022/12/20 07:56:17;;;;;;;;;;;6.00;99.90;;;5.34;100.00;97548.38;5052082;28;19925;-40
2022/12/20 07:58:43;;;;;;;;;;;6.10;99.90;;;5.37;100.00;97550.97;5048925;28;20242;-41
2022/12/20 08:01:09;;;;;;;;;;;6.20;99.90;;;5.38;100.00;97536.13;5052064;28;20295;-41
2022/12/20 08:03:38;;;;;;;;;;;6.20;99.90;;;5.54;100.00;97555.94;5047467;28;19987;-40
2022/12/20 08:06:04;;;;;;;;;;;6.30;99.90;;;5.62;100.00;97561.09;5052576;28;19932;-40
2022/12/20 08:08:36;;;;;;;;;;;6.40;99.90;;;5.66;100.00;97555.75;5052597;28;19921;-40
2022/12/20 08:11:02;;;;;;;;;;;6.40;99.90;;;5.72;100.00;97560.03;5056612;28;19923;-41
2022/12/20 08:13:28;;;;;;;;;;;6.50;99.90;;;5.80;100.00;97552.94;5053614;28;20479;-40
2022/12/20 08:15:54;;;;;;;;;;;6.50;99.90;;;5.85;100.00;97552.84;5051306;28;19982;-41
2022/12/20 08:18:19;;;;;;;;;;;6.60;99.90;;;5.83;100.00;97541.56;5056667;28;20015;-40
2022/12/20 08:20:45;;;;;;;;;;;6.60;99.90;;;5.88;100.00;97530.13;5056654;28;21577;-40
2022/12/20 08:23:11;;;;;;;;;;;6.70;99.90;;;6.01;100.00;97540.41;5052542;28;19939;-40
2022/12/20 08:25:36;;;;;;;;;;;6.80;99.90;;;6.04;100.00;97536.00;5051120;28;20364;-40
2022/12/20 08:28:02;;;;;;;;;;;6.80;99.90;;;6.06;100.00;97539.44;5055116;28;19917;-40
2022/12/20 08:30:28;;;;;;;;;;;6.80;99.90;;;6.04;100.00;97522.91;5052971;28;19929;-40
2022/12/20 08:32:54;;;;;;;;;;;6.80;99.90;;;6.05;100.00;97523.78;5053295;28;20368;-40
2022/12/20 08:35:20;;;;;;;;;;;6.80;99.90;;;6.05;100.00;97522.03;5053512;28;19921;-40
2022/12/20 08:37:46;;;;;;;;;;;6.80;99.90;;;6.05;100.00;97514.19;5050707;28;20445;-40
2022/12/20 08:40:12;;;;;;;;;;;6.90;99.90;;;6.06;100.00;97515.88;5053654;28;19936;-40
2022/12/20 08:42:37;;;;;;;;;;;6.90;99.90;;;6.12;100.00;97514.94;5053965;28;19967;-40
2022/12/20 08:45:04;;;;;;;;;;;6.90;99.90;;;6.24;100.00;97513.84;5054328;28;20363;-40
2022/12/20 08:47:29;;;;;;;;;;;7.00;99.90;;;6.39;100.00;97515.31;5055851;28;19972;-40
2022/12/20 08:49:55;;;;;;;;;;;7.10;99.90;;;6.49;100.00;97501.16;5054005;28;20293;-40
2022/12/20 08:52:20;;;;;;;;;;;7.30;99.90;;;6.66;100.00;97506.94;5053709;28;19955;-40
2022/12/20 08:54:46;;;;;;;;;;;7.40;99.90;;;6.76;100.00;97491.88;5052364;28;19916;-40
2022/12/20 08:57:12;;;;;;;;;;;7.50;99.90;;;6.93;100.00;97499.44;5052592;28;19947;-41
2022/12/20 08:59:38;;;;;;;;;;;7.70;99.90;;;7.04;100.00;97497.44;5053571;28;19947;-41
2022/12/20 09:02:03;;;;;;;;;;;7.80;99.90;;;7.14;100.00;97502.47;5049434;28;20376;-41
2022/12/20 09:04:29;;;;;;;;;;;7.90;99.90;;;7.23;100.00;97504.88;5051339;28;19921;-40
2022/12/20 09:06:55;;;;;;;;;;;8.00;99.90;;;7.29;100.00;97501.31;5054074;28;19920;-41
2022/12/20 09:09:20;;;;;;;;;;;8.00;99.90;;;7.17;100.00;97491.94;5053896;28;19978;-40
2022/12/20 09:11:46;;;;;;;;;;;8.10;99.90;;;7.30;100.00;97508.25;5054010;28;19951;-40
2022/12/20 09:14:12;;;;;;;;;;;8.10;99.90;;;7.18;100.00;97485.78;5052739;28;19967;-40
2022/12/20 09:16:37;;;;;;;;;;;8.10;99.90;;;7.25;100.00;97492.63;5053999;28;20020;-40
2022/12/20 09:19:03;;;;;;;;;;;8.00;99.90;;;7.25;100.00;97490.00;5052430;28;19939;-40
2022/12/20 09:21:31;;;;;;;;;;;8.00;99.90;;;7.26;100.00;97492.56;5046915;28;20014;-41
2022/12/20 09:23:57;;;;;;;;;;;8.00;99.90;;;7.17;100.00;97456.06;5051322;28;19925;-40
2022/12/20 09:26:23;;;;;;;;;;;8.00;99.90;;;7.31;100.00;97495.09;5051788;28;20568;-40
2022/12/20 09:28:49;;;;;;;;;;;8.10;99.90;;;7.40;100.00;97491.41;5051350;28;19929;-40
2022/12/20 09:31:18;;;;;;;;;;;8.10;99.90;;;7.47;100.00;97500.88;5051367;28;20567;-40
2022/12/20 09:33:44;;;;;;;;;;;8.20;99.90;;;7.49;100.00;97492.97;5054324;28;19931;-40
2022/12/20 09:36:11;;;;;;;;;;;8.20;99.90;;;7.40;100.00;97494.91;5051815;28;19932;-40
2022/12/20 09:38:37;;;;;;;;;;;8.20;99.90;;;7.39;100.00;97501.06;5053252;28;20372;-40
2022/12/20 09:41:04;;;;;;;;;;;8.20;99.90;;;7.33;100.00;97485.44;5049612;28;20013;-40
2022/12/20 09:43:31;;;;;;;;;;;8.10;99.90;;;7.30;100.00;97472.38;5051920;28;19930;-40
2022/12/20 09:45:59;;;;;;;;;;;8.10;99.90;;;7.35;100.00;97478.38;5049207;28;20019;-40
2022/12/20 09:48:29;;;;;;;;;;;8.10;99.90;;;7.38;100.00;97473.06;5055713;28;19960;-40
2022/12/20 09:51:07;;;;;;;;;;;8.10;99.90;;;7.45;100.00;97485.16;5048276;28;19929;-40
2022/12/20 09:54:11;;;;;;;;;;;8.20;99.90;;;7.45;100.00;97473.81;5053961;28;20007;-40
2022/12/20 09:56:50;;;;;;;;;;;8.30;99.90;;;7.54;100.00;97470.09;5034742;28;20117;-40
2022/12/20 09:59:19;;;;;;;;;;;8.30;99.90;;;7.57;100.00;97467.38;5048527;28;19921;-40
2022/12/20 10:01:47;;;;;;;;;;;8.30;99.90;;;7.58;100.00;97462.09;5047795;28;19920;-41
2022/12/20 10:04:24;;;;;;;;;;;8.30;99.90;;;7.66;100.00;97459.28;5069461;28;20224;-40
2022/12/20 10:07:02;;;;;;;;;;;8.40;99.90;;;7.70;100.00;97453.09;5050851;28;19917;-40
2022/12/20 10:09:35;;;;;;;;;;;8.40;99.90;;;7.71;100.00;97446.06;5051510;28;19997;-41
2022/12/20 10:12:07;;;;;;;;;;;8.40;99.90;;;7.65;100.00;97453.19;5049449;28;19924;-40
2022/12/20 10:14:42;;;;;;;;;;;8.40;99.90;;;7.65;100.00;97445.31;5054767;28;19916;-40
2022/12/20 10:17:50;;;;;;;;;;;8.40;99.90;;;7.71;100.00;97457.41;5052621;28;19921;-40
2022/12/20 10:20:40;;;;;;;;;;;8.40;99.90;;;7.73;100.00;97457.38;5037880;28;19937;-40
2022/12/20 10:23:22;;;;;;;;;;;8.40;99.90;;;7.80;100.00;97451.09;5052899;28;19924;-40
2022/12/20 10:25:50;;;;;;;;;;;8.50;99.90;;;7.88;100.00;97445.63;5052430;28;19916;-40
2022/12/20 10:28:19;;;;;;;;;;;8.60;99.90;;;7.91;100.00;97435.06;5049807;28;19923;-40
2022/12/20 10:30:44;;;;;;;;;;;8.60;99.90;;;7.94;100.00;97435.84;5048227;28;19920;-40
2022/12/20 10:33:22;;;;;;;;;;;8.60;99.90;;;7.97;100.00;97438.41;5055532;28;19932;-40
2022/12/20 10:35:49;;;;;;;;;;;8.70;99.90;;;7.94;100.00;97430.59;5052533;28;20284;-40
2022/12/20 10:38:17;;;;;;;;;;;8.70;99.90;;;7.98;100.00;97426.13;5049723;28;19963;-40
2022/12/20 10:40:45;;;;;;;;;;;8.70;99.90;;;7.96;100.00;97425.31;5052957;28;19920;-40
2022/12/20 10:43:18;;;;;;;;;;;8.70;99.90;;;7.97;100.00;97422.63;5049339;28;19925;-40
2022/12/20 10:45:55;;;;;;;;;;;8.70;99.90;;;7.92;100.00;97428.91;5058864;28;19968;-40
2022/12/20 10:48:30;;;;;;;;;;;8.60;99.90;;;7.83;100.00;97430.88;5046274;28;19954;-40
2022/12/20 10:51:09;;;;;;;;;;;8.60;99.90;;;7.82;100.00;97420.41;5056563;28;20107;-40
2022/12/20 10:53:36;;;;;;;;;;;8.50;99.90;;;7.83;100.00;97430.00;5057780;28;20295;-40
2022/12/20 10:56:21;;;;;;;;;;;8.60;99.90;;;7.84;100.00;97415.97;5056094;28;19917;-40
2022/12/20 10:58:55;;;;;;;;;;;8.60;99.90;;;7.88;100.00;97409.75;5054913;28;20010;-40
2022/12/20 11:01:24;;;;;;;;;;;8.60;99.90;;;7.95;100.00;97415.69;5049563;28;19986;-40
2022/12/20 11:03:55;;;;;;;;;;;8.60;99.90;;;7.94;100.00;97408.72;5056154;28;20410;-40
2022/12/20 11:06:25;;;;;;;;;;;8.70;99.90;;;8.02;100.00;97412.88;5059020;28;19920;-40
2022/12/20 11:08:51;;;;;;;;;;;8.70;99.90;;;8.10;100.00;97407.41;5071732;28;19917;-40
2022/12/20 11:11:22;;;;;;;;;;;8.80;99.90;;;8.11;100.00;97395.13;5052820;28;20388;-40
2022/12/20 11:13:49;;;;;;;;;;;8.90;99.90;;;8.19;100.00;97404.53;5052371;28;20162;-40
2022/12/20 11:16:23;;;;;;;;;;;8.90;99.90;;;8.33;100.00;97411.19;5052845;28;19955;-40
2022/12/20 11:19:02;;;;;;;;;;;9.00;99.90;;;8.46;100.00;97396.81;5052363;28;19917;-40
2022/12/20 11:21:56;;;;;;;;;;;9.10;99.90;;;8.57;100.00;97400.00;5051655;28;19928;-40
2022/12/20 11:24:34;;;;;;;;;;;9.30;99.90;;;8.71;100.00;97389.06;5051324;28;19985;-40
2022/12/20 11:27:15;;;;;;;;;;;9.40;99.90;;;8.77;100.00;97391.53;5067488;28;19920;-40
2022/12/20 11:30:04;;;;;;;;;;;9.50;99.90;;;8.86;100.00;97390.38;5046880;28;19994;-40
2022/12/20 11:32:57;;;;;;;;;;;9.50;99.90;;;8.94;100.00;97396.28;5054769;28;19920;-40
2022/12/20 11:35:37;;;;;;;;;;;9.60;99.90;;;9.05;100.00;97387.22;5055750;28;19924;-40
2022/12/20 11:38:08;;;;;;;;;;;9.70;99.90;;;9.08;100.00;97381.81;5058897;28;20016;-40
2022/12/20 11:40:50;;;;;;;;;;;9.70;99.90;;;9.06;100.00;97379.28;5055868;28;20008;-40
2022/12/20 11:43:41;;;;;;;;;;;9.70;99.90;;;9.03;100.00;97375.88;5049456;28;19916;-40